Time;durP1;ratioP1;P1;durP2;ratioP2;P2;SDS_P1;SDS_P2;PMS_P1;PMS_P2;Temp;Humidity;BMP_temperature;BMP_pressure;BME280_temperature;BME280_humidity;BME280_pressure;Samples;Min_cycle;Max_cycle;Signal;HPM_P1;HPM_P2
2022/10/18 00:03:29;;;;;;;1999.90;999.90;;;16.30;99.90;;;;;;6699846;88;20198;-76
2022/10/18 00:13:29;;;;;;;1999.90;999.90;;;16.30;99.90;;;;;;6695530;88;20243;-75
2022/10/18 00:23:31;;;;;;;1999.90;999.90;;;16.30;99.90;;;;;;6692065;88;20249;-76
2022/10/18 00:33:31;;;;;;;1999.90;999.90;;;16.30;99.90;;;;;;6693753;88;20379;-76
2022/10/18 00:43:49;;;;;;;1999.90;999.90;;;16.20;99.90;;;;;;6694814;88;20241;-75
2022/10/18 00:53:50;;;;;;;1999.90;999.90;;;16.20;99.90;;;;;;6695118;88;20245;-76
2022/10/18 01:03:51;;;;;;;1999.90;999.90;;;16.20;99.90;;;;;;6695131;88;21096;-76
2022/10/18 01:14:10;;;;;;;1999.90;999.90;;;16.10;99.90;;;;;;6699111;88;20187;-76
2022/10/18 01:24:38;;;;;;;1999.90;999.90;;;16.10;99.90;;;;;;6697699;88;20316;-77
2022/10/18 01:34:42;;;;;;;1999.90;999.90;;;16.20;99.90;;;;;;6698601;88;20676;-76
2022/10/18 01:44:44;;;;;;;1999.90;999.90;;;16.20;99.90;;;;;;6694936;88;20310;-77
2022/10/18 01:54:47;;;;;;;1999.90;999.90;;;16.20;99.90;;;;;;6696737;88;21203;-77
2022/10/18 02:05:01;;;;;;;1999.90;999.90;;;16.20;99.90;;;;;;6691005;88;20214;-76
2022/10/18 02:15:05;;;;;;;1999.90;999.90;;;16.30;99.90;;;;;;6695840;88;20249;-77
2022/10/18 02:25:10;;;;;;;1999.90;999.90;;;16.20;99.90;;;;;;6695498;88;20261;-77
2022/10/18 02:35:25;;;;;;;1999.90;999.90;;;16.10;99.90;;;;;;6693607;88;20238;-77
2022/10/18 02:45:26;;;;;;;;;;;16.10;99.90;;;;;;6701771;88;20201;-76
2022/10/18 02:55:26;;;;;;;1999.90;999.90;;;16.20;99.90;;;;;;6698131;88;20077;-77
2022/10/18 03:05:27;;;;;;;1999.90;999.90;;;16.10;99.90;;;;;;6697484;88;20233;-77
2022/10/18 03:15:27;;;;;;;1999.90;999.90;;;16.10;99.90;;;;;;6685891;88;20291;-76
2022/10/18 03:25:28;;;;;;;1999.90;999.90;;;16.10;99.90;;;;;;6690218;88;20213;-74
2022/10/18 03:35:28;;;;;;;1999.90;999.90;;;16.00;99.90;;;;;;6700102;88;20858;-75
2022/10/18 03:45:29;;;;;;;1999.90;999.90;;;16.00;99.90;;;;;;6715834;77;20188;-76
2022/10/18 03:55:29;;;;;;;1999.90;999.90;;;16.00;99.90;;;;;;6716901;88;20618;-76
2022/10/18 04:05:30;;;;;;;1999.90;999.90;;;16.00;99.90;;;;;;6723229;88;20719;-76
2022/10/18 04:15:30;;;;;;;1999.90;999.90;;;16.00;99.90;;;;;;6718363;88;20389;-76
2022/10/18 04:25:31;;;;;;;1999.90;999.90;;;15.90;99.90;;;;;;6709570;88;20224;-76
2022/10/18 04:35:31;;;;;;;1999.90;999.90;;;15.90;99.90;;;;;;6714506;88;20222;-76
2022/10/18 04:45:32;;;;;;;1999.90;999.90;;;15.80;99.90;;;;;;6717947;88;20215;-76
2022/10/18 04:55:32;;;;;;;1999.90;999.90;;;15.90;99.90;;;;;;6725832;88;20190;-77
2022/10/18 05:05:33;;;;;;;1999.90;999.90;;;15.80;99.90;;;;;;6716639;88;20768;-76
2022/10/18 05:15:34;;;;;;;1999.90;999.90;;;15.80;99.90;;;;;;6716192;88;20366;-77
2022/10/18 05:25:37;;;;;;;1999.90;999.90;;;15.80;99.90;;;;;;6724261;88;20230;-77
2022/10/18 05:35:38;;;;;;;1999.90;999.90;;;15.80;99.90;;;;;;6723800;88;20182;-76
2022/10/18 05:45:38;;;;;;;1999.90;999.90;;;15.80;99.90;;;;;;6723064;88;20626;-77
2022/10/18 05:55:39;;;;;;;1999.90;999.90;;;15.90;99.90;;;;;;6714096;88;20174;-76
2022/10/18 06:05:39;;;;;;;1999.90;999.90;;;15.80;99.90;;;;;;6710067;88;20177;-78
2022/10/18 06:15:40;;;;;;;1999.90;999.90;;;15.80;99.90;;;;;;6712886;88;20206;-76
2022/10/18 06:25:40;;;;;;;1999.90;999.90;;;15.80;99.90;;;;;;6710981;88;20245;-77
2022/10/18 06:35:41;;;;;;;1999.90;999.90;;;15.80;99.90;;;;;;6708329;88;20194;-78
2022/10/18 06:45:41;;;;;;;1999.90;999.90;;;15.80;99.90;;;;;;6716404;88;20592;-78
2022/10/18 06:55:42;;;;;;;1999.90;999.90;;;15.80;99.90;;;;;;6720891;88;20260;-77
2022/10/18 07:05:43;;;;;;;1999.90;999.90;;;15.80;99.90;;;;;;6718958;88;20193;-77
2022/10/18 07:15:43;;;;;;;1999.90;999.90;;;15.80;99.90;;;;;;6712413;88;20202;-78
2022/10/18 07:25:44;;;;;;;1999.90;999.90;;;15.80;99.90;;;;;;6709815;88;20193;-76
2022/10/18 07:35:44;;;;;;;1999.90;999.90;;;15.90;99.90;;;;;;6722684;88;20230;-77
2022/10/18 07:45:51;;;;;;;1999.90;999.90;;;16.10;99.90;;;;;;6722651;88;20253;-76
2022/10/18 07:55:56;;;;;;;1999.90;999.90;;;16.10;99.90;;;;;;6724450;88;20470;-76
2022/10/18 08:05:57;;;;;;;;;;;16.20;99.90;;;;;;6724113;88;20217;-76
2022/10/18 08:16:07;;;;;;;1999.90;999.90;;;16.30;99.90;;;;;;6716485;88;20534;-76
2022/10/18 08:26:11;;;;;;;1999.90;999.90;;;16.20;99.90;;;;;;6728394;88;20212;-77
2022/10/18 08:36:14;;;;;;;1999.90;999.90;;;16.30;99.90;;;;;;6720077;88;20195;-76
2022/10/18 08:46:14;;;;;;;1999.90;999.90;;;16.60;99.90;;;;;;6718547;88;20235;-76
2022/10/18 08:56:20;;;;;;;1999.90;999.90;;;16.60;99.90;;;;;;6715429;88;20209;-77
2022/10/18 09:06:38;;;;;;;1999.90;999.90;;;16.70;99.90;;;;;;6718132;88;20173;-77
2022/10/18 09:16:49;;;;;;;1999.90;999.90;;;16.70;99.90;;;;;;6721250;88;20202;-77
2022/10/18 09:27:00;;;;;;;1999.90;999.90;;;16.70;99.90;;;;;;6719646;88;20325;-77
2022/10/18 09:37:01;;;;;;;1999.90;999.90;;;16.80;99.90;;;;;;6717005;88;20204;-77
2022/10/18 09:47:15;;;;;;;1999.90;999.90;;;17.00;99.90;;;;;;6715999;77;20194;-76
2022/10/18 09:57:26;;;;;;;1999.90;999.90;;;17.20;99.90;;;;;;6694447;88;20303;-77
2022/10/18 10:07:33;;;;;;;1999.90;999.90;;;17.20;99.90;;;;;;6693297;88;20189;-78
2022/10/18 10:17:33;;;;;;;1999.90;999.90;;;17.10;99.90;;;;;;6694508;88;20210;-76
2022/10/18 10:27:42;;;;;;;1999.90;999.90;;;17.00;99.90;;;;;;6694913;88;20316;-76
2022/10/18 10:37:50;;;;;;;1999.90;999.90;;;17.10;99.90;;;;;;6695615;88;20190;-76
2022/10/18 10:47:53;;;;;;;1999.90;999.90;;;17.10;99.90;;;;;;6659306;88;20213;-76
2022/10/18 10:57:55;;;;;;;1999.90;999.90;;;17.10;99.90;;;;;;6625072;88;20251;-76
2022/10/18 11:08:01;;;;;;;1999.90;999.90;;;17.30;99.90;;;;;;6609880;89;20198;-76
2022/10/18 11:18:06;;;;;;;1999.90;999.90;;;17.50;99.90;;;;;;6605625;89;20215;-76
2022/10/18 11:28:46;;;;;;;1999.90;999.90;;;17.30;99.90;;;;;;6608605;89;20353;-76
2022/10/18 11:38:57;;;;;;;1999.90;999.90;;;17.30;99.90;;;;;;6612094;89;20700;-76
2022/10/18 11:49:21;;;;;;;1999.90;999.90;;;17.60;99.90;;;;;;6649751;88;20340;-76
2022/10/18 11:59:36;;;;;;;1999.90;999.90;;;19.20;99.90;;;;;;6692828;88;20653;-76
2022/10/18 12:09:42;;;;;;;1999.90;999.90;;;18.80;99.90;;;;;;6692337;88;20290;-76
2022/10/18 12:19:44;;;;;;;1999.90;999.90;;;18.50;99.90;;;;;;6693105;88;20319;-76
2022/10/18 12:30:02;;;;;;;1999.90;999.90;;;18.40;99.90;;;;;;6696054;88;20190;-76
2022/10/18 12:40:16;;;;;;;1999.90;999.90;;;18.30;99.90;;;;;;6694587;88;20219;-76
2022/10/18 12:50:39;;;;;;;1999.90;999.90;;;18.60;99.90;;;;;;6640296;88;20387;-76
2022/10/18 13:00:42;;;;;;;1999.90;999.90;;;18.70;99.90;;;;;;6616356;88;20311;-76
2022/10/18 13:10:43;;;;;;;1999.90;999.90;;;18.70;99.90;;;;;;6618123;89;20210;-77
2022/10/18 13:21:00;;;;;;;1999.90;999.90;;;18.90;99.90;;;;;;6617621;89;20263;-76
2022/10/18 13:31:22;;;;;;;1999.90;999.90;;;21.10;99.90;;;;;;6616560;89;20695;-76
2022/10/18 13:41:25;;;;;;;1999.90;999.90;;;21.70;99.90;;;;;;6615547;88;20206;-76
2022/10/18 13:52:05;;;;;;;1999.90;999.90;;;22.40;99.90;;;;;;6620426;88;20521;-76
2022/10/18 14:02:30;;;;;;;1999.90;999.90;;;22.30;99.90;;;;;;6598391;89;20348;-76
2022/10/18 14:12:42;;;;;;;1999.90;999.90;;;21.80;99.90;;;;;;6609562;89;20225;-76
2022/10/18 14:23:01;;;;;;;1999.90;999.90;;;21.80;99.90;;;;;;6610322;89;20694;-76
2022/10/18 14:33:02;;;;;;;1999.90;999.90;;;21.30;99.90;;;;;;6617864;88;20398;-75
2022/10/18 14:43:11;;;;;;;1999.90;999.90;;;21.30;99.90;;;;;;6608243;89;20198;-76
2022/10/18 14:53:19;;;;;;;1999.90;999.90;;;20.60;99.90;;;;;;6687026;88;20215;-76
2022/10/18 15:03:20;;;;;;;1999.90;999.90;;;20.80;99.90;;;;;;6692731;88;20689;-76
2022/10/18 15:13:22;;;;;;;1999.90;999.90;;;20.00;99.90;;;;;;6693344;88;20256;-76
2022/10/18 15:23:25;;;;;;;1999.90;999.90;;;19.30;99.90;;;;;;6691431;88;20187;-75
2022/10/18 15:33:32;;;;;;;1999.90;999.90;;;19.30;99.90;;;;;;6693623;88;20213;-76
2022/10/18 15:43:34;;;;;;;1999.90;999.90;;;19.10;99.90;;;;;;6695755;88;20631;-76
2022/10/18 15:53:55;;;;;;;1999.90;999.90;;;19.20;99.90;;;;;;6734900;77;20208;-80
2022/10/18 16:03:56;;;;;;;1999.90;999.90;;;18.80;99.90;;;;;;6725123;88;20759;-80
2022/10/18 16:13:56;;;;;;;1999.90;999.90;;;18.60;99.90;;;;;;6669049;88;20239;-78
2022/10/18 16:23:57;;;;;;;1999.90;999.90;;;18.40;99.90;;;;;;6727671;88;20220;-80
2022/10/18 16:33:58;;;;;;;1999.90;999.90;;;18.10;99.90;;;;;;6713273;88;20171;-80
2022/10/18 16:43:59;;;;;;;1999.90;999.90;;;17.80;99.90;;;;;;6696682;88;20724;-78
2022/10/18 16:53:59;;;;;;;1999.90;999.90;;;17.40;99.90;;;;;;6732840;88;20194;-81
2022/10/18 17:04:00;;;;;;;1999.90;999.90;;;17.20;99.90;;;;;;6707951;88;20190;-80
2022/10/18 17:14:00;;;;;;;1999.90;999.90;;;16.80;99.90;;;;;;6717114;88;20237;-78
2022/10/18 17:24:03;;;;;;;1999.90;999.90;;;16.60;99.90;;;;;;6718463;88;20197;-78
2022/10/18 17:34:04;;;;;;;1999.90;999.90;;;16.40;99.90;;;;;;6686902;88;20176;-78
2022/10/18 17:44:06;;;;;;;1999.90;999.90;;;15.90;99.90;;;;;;6712201;88;20282;-79
2022/10/18 17:54:06;;;;;;;1999.90;999.90;;;15.70;99.90;;;;;;6724334;88;20248;-79
2022/10/18 18:04:07;;;;;;;1999.90;999.90;;;15.50;99.90;;;;;;6736039;88;20205;-80
2022/10/18 18:14:08;;;;;;;1999.90;999.90;;;15.40;99.90;;;;;;6724907;88;20174;-80
2022/10/18 18:24:09;;;;;;;1999.90;999.90;;;15.20;99.90;;;;;;6720602;88;20263;-78
2022/10/18 18:34:10;;;;;;;1999.90;999.90;;;15.10;99.90;;;;;;6729636;88;20207;-79
2022/10/18 18:44:11;;;;;;;1999.90;999.90;;;15.00;99.90;;;;;;6718932;88;20413;-79
2022/10/18 18:54:13;;;;;;;1999.90;999.90;;;15.00;99.90;;;;;;6714061;88;20810;-78
2022/10/18 19:04:14;;;;;;;1999.90;999.90;;;14.70;99.90;;;;;;6722746;88;20706;-77
2022/10/18 19:14:15;;;;;;;1999.90;999.90;;;14.60;99.90;;;;;;6721425;88;20299;-78
2022/10/18 19:24:15;;;;;;;1999.90;999.90;;;14.50;99.90;;;;;;6726000;88;20227;-79
2022/10/18 19:34:17;;;;;;;1999.90;999.90;;;14.40;99.90;;;;;;6726690;88;20313;-79
2022/10/18 19:44:18;;;;;;;1999.90;999.90;;;14.30;99.90;;;;;;6721588;88;20292;-78
2022/10/18 19:54:19;;;;;;;1999.90;999.90;;;14.20;99.90;;;;;;6721630;88;20770;-78
2022/10/18 20:04:19;;;;;;;1999.90;999.90;;;14.00;99.90;;;;;;6727421;88;20352;-78
2022/10/18 20:14:20;;;;;;;1999.90;999.90;;;13.90;99.90;;;;;;6722792;88;20198;-79
2022/10/18 20:24:20;;;;;;;1999.90;999.90;;;13.80;99.90;;;;;;6728577;88;20691;-79
2022/10/18 20:34:24;;;;;;;1999.90;999.90;;;13.60;99.90;;;;;;6719188;88;20221;-80
2022/10/18 20:44:25;;;;;;;1999.90;999.90;;;13.50;99.90;;;;;;6720796;88;20204;-79
2022/10/18 20:54:26;;;;;;;1999.90;999.90;;;13.30;99.90;;;;;;6724534;88;20192;-80
2022/10/18 21:04:26;;;;;;;1999.90;999.90;;;13.20;99.90;;;;;;6728328;88;20206;-80
2022/10/18 21:14:27;;;;;;;1999.90;999.90;;;13.00;99.90;;;;;;6734279;88;20645;-80
2022/10/18 21:24:29;;;;;;;1999.90;999.90;;;12.90;99.90;;;;;;6726053;88;20309;-80
2022/10/18 21:34:29;;;;;;;1999.90;999.90;;;12.80;99.90;;;;;;6725693;88;20494;-80
2022/10/18 21:44:50;;;;;;;1999.90;999.90;;;12.70;99.90;;;;;;6720100;88;20275;-78
2022/10/18 21:54:52;;;;;;;1999.90;999.90;;;12.50;99.90;;;;;;6712456;88;20178;-77
2022/10/18 22:04:52;;;;;;;1999.90;999.90;;;12.50;99.90;;;;;;6727126;88;20207;-76
2022/10/18 22:14:53;;;;;;;1999.90;999.90;;;12.40;99.90;;;;;;6718192;88;20186;-76
2022/10/18 22:24:53;;;;;;;1999.90;999.90;;;12.20;99.90;;;;;;6712303;88;20641;-76
2022/10/18 22:34:54;;;;;;;1999.90;999.90;;;12.10;99.90;;;;;;6712091;88;20190;-76
2022/10/18 22:44:54;;;;;;;1999.90;999.90;;;12.10;99.90;;;;;;6719373;88;20577;-76
2022/10/18 22:54:55;;;;;;;1999.90;999.90;;;12.00;99.90;;;;;;6712516;88;20241;-76
2022/10/18 23:04:55;;;;;;;1999.90;999.90;;;11.80;99.90;;;;;;6716547;88;20178;-75
2022/10/18 23:14:56;;;;;;;1999.90;999.90;;;11.60;99.90;;;;;;6717459;88;20240;-75
2022/10/18 23:24:56;;;;;;;1999.90;999.90;;;11.50;99.90;;;;;;6718495;88;20207;-75
2022/10/18 23:34:57;;;;;;;1999.90;999.90;;;11.50;99.90;;;;;;6715830;88;20305;-75
2022/10/18 23:44:57;;;;;;;1999.90;999.90;;;11.50;99.90;;;;;;6714528;88;20688;-74
2022/10/18 23:54:58;;;;;;;1999.90;999.90;;;11.40;99.90;;;;;;6720215;88;20902;-75
